Time;durP1;ratioP1;P1;durP2;ratioP2;P2;SDS_P1;SDS_P2;PMS_P1;PMS_P2;Temp;Humidity;BMP_temperature;BMP_pressure;BME280_temperature;BME280_humidity;BME280_pressure;Samples;Min_cycle;Max_cycle;Signal;HPM_P1;HPM_P2
2021/05/28 00:01:52;;;;;;;;;5.50;5.50;;;;;21.23;35.08;100064.94;4996862;28;8753;-51
2021/05/28 00:04:18;;;;;;;;;6.00;6.00;;;;;21.39;34.50;100057.78;4999980;28;8820;-51
2021/05/28 00:06:43;;;;;;;;;7.00;7.00;;;;;21.54;34.69;100064.66;4997966;28;8792;-51
2021/05/28 00:09:08;;;;;;;;;6.00;6.00;;;;;21.45;35.28;100072.91;5002571;28;8868;-51
2021/05/28 00:11:34;;;;;;;;;5.00;5.00;;;;;21.30;35.29;100063.31;4997463;28;8772;-50
2021/05/28 00:13:59;;;;;;;;;5.25;5.25;;;;;20.99;35.85;100069.84;4997503;28;8947;-51
2021/05/28 00:16:25;;;;;;;;;7.25;7.25;;;;;20.86;36.10;100073.63;4993746;28;8791;-51
2021/05/28 00:18:51;;;;;;;;;5.80;5.80;;;;;20.69;36.40;100051.72;4992186;28;8822;-51
2021/05/28 00:21:17;;;;;;;;;6.00;6.00;;;;;20.73;36.53;100077.34;4996034;28;8777;-51
2021/05/28 00:23:42;;;;;;;;;5.50;5.50;;;;;20.71;36.44;100079.63;5003422;28;8780;-50
2021/05/28 00:26:08;;;;;;;;;4.25;4.25;;;;;20.68;36.56;100074.78;4993747;28;8801;-51
2021/05/28 00:28:33;;;;;;;;;6.25;6.25;;;;;20.64;36.83;100080.09;4976073;28;9621;-50
2021/05/28 00:30:58;;;;;;;;;5.00;5.00;;;;;20.63;36.71;100075.75;4999135;28;8817;-50
2021/05/28 00:33:24;;;;;;;;;5.75;5.75;;;;;20.60;36.75;100079.91;4993668;28;8781;-51
2021/05/28 00:35:49;;;;;;;;;5.00;5.00;;;;;20.57;36.65;100079.75;4992197;28;8843;-51
2021/05/28 00:38:14;;;;;;;;;5.00;5.00;;;;;20.57;36.86;100088.00;4986090;28;9609;-51
2021/05/28 00:40:40;;;;;;;;;5.00;5.00;;;;;20.55;36.85;100093.78;5000025;28;8804;-51
2021/05/28 00:43:05;;;;;;;;;5.75;5.25;;;;;20.83;36.49;100087.19;5007579;28;8822;-50
2021/05/28 00:45:31;;;;;;;;;5.00;5.00;;;;;20.77;36.18;100087.34;5002738;28;8807;-51
2021/05/28 00:47:56;;;;;;;;;6.25;5.50;;;;;20.61;36.62;100087.06;4994748;28;8877;-51
2021/05/28 00:50:21;;;;;;;;;5.50;5.50;;;;;20.53;36.85;100084.28;5002064;28;8796;-51
2021/05/28 00:52:52;;;;;;;;;4.00;4.00;;;;;20.50;36.94;100085.72;5003154;28;8795;-51
2021/05/28 00:55:17;;;;;;;;;4.80;4.80;;;;;20.40;36.90;100075.09;5006949;28;8820;-50
2021/05/28 00:57:43;;;;;;;;;5.00;5.00;;;;;20.47;37.09;100096.53;5000658;28;8799;-51
2021/05/28 01:00:09;;;;;;;;;4.00;4.00;;;;;20.45;36.93;100098.78;4993083;28;8897;-51
2021/05/28 01:02:34;;;;;;;;;5.00;5.00;;;;;20.42;37.02;100095.56;4997282;28;8853;-50
2021/05/28 01:05:00;;;;;;;;;4.00;4.00;;;;;20.41;37.09;100093.94;4996050;28;8799;-50
2021/05/28 01:07:25;;;;;;;;;5.50;5.00;;;;;20.41;37.00;100096.69;4987489;28;8803;-51
2021/05/28 01:09:51;;;;;;;;;4.25;4.25;;;;;20.40;37.12;100102.50;4958296;28;8788;-50
2021/05/28 01:12:16;;;;;;;;;4.75;4.75;;;;;20.38;37.10;100105.56;4998450;28;8874;-51
2021/05/28 01:14:43;;;;;;;;;5.00;5.00;;;;;20.41;37.08;100109.59;5002917;28;8800;-51
2021/05/28 01:17:09;;;;;;;;;4.00;4.00;;;;;20.72;36.62;100108.63;4998689;28;8800;-51
2021/05/28 01:19:34;;;;;;;;;4.00;4.00;;;;;20.53;36.68;100117.97;5002517;28;8808;-52
2021/05/28 01:22:04;;;;;;;;;4.50;4.50;;;;;20.42;36.95;100108.44;5001181;28;8808;-51
2021/05/28 01:24:30;;;;;;;;;5.80;5.00;;;;;20.37;37.10;100114.91;5000424;28;8808;-51
2021/05/28 01:26:55;;;;;;;;;4.50;4.50;;;;;20.35;36.91;100110.88;4993050;28;8802;-52
2021/05/28 01:29:21;;;;;;;;;5.75;5.00;;;;;20.34;37.10;100110.06;4994048;28;8868;-51
2021/05/28 01:31:46;;;;;;;;;4.00;4.00;;;;;20.33;37.14;100105.72;5003880;28;8789;-50
2021/05/28 01:34:11;;;;;;;;;4.00;4.00;;;;;20.32;37.12;100106.84;5003882;28;8828;-51
2021/05/28 01:36:36;;;;;;;;;4.25;4.25;;;;;20.30;37.18;100106.38;4999082;28;8803;-50
2021/05/28 01:39:03;;;;;;;;;3.50;3.50;;;;;20.31;37.37;100112.66;5007612;28;8939;-51
2021/05/28 01:41:29;;;;;;;;;4.80;4.40;;;;;20.28;37.23;100116.03;5001844;28;8820;-51
2021/05/28 01:43:55;;;;;;;;;4.60;4.60;;;;;20.24;37.36;100113.97;5001986;28;8771;-50
2021/05/28 01:46:21;;;;;;;;;4.50;4.50;;;;;20.26;37.27;100118.28;4996773;28;8829;-50
2021/05/28 01:48:46;;;;;;;;;4.00;4.00;;;;;20.49;37.06;100116.19;4998977;28;12675;-51
2021/05/28 01:51:11;;;;;;;;;3.75;3.75;;;;;20.48;36.69;100117.34;5002075;28;8791;-50
2021/05/28 01:53:37;;;;;;;;;4.25;4.25;;;;;20.34;36.89;100115.56;4998609;28;9566;-51
2021/05/28 01:56:02;;;;;;;;;4.00;4.00;;;;;20.26;37.12;100119.09;4998070;28;8857;-50
2021/05/28 01:58:28;;;;;;;;;4.75;4.75;;;;;20.23;37.26;100127.97;5002795;28;8844;-51
2021/05/28 02:00:56;;;;;;;;;3.00;3.00;;;;;20.23;37.28;100127.97;4998392;28;8826;-50
2021/05/28 02:03:23;;;;;;;;;4.60;4.60;;;;;20.19;37.41;100125.06;4993350;28;8911;-51
2021/05/28 02:05:48;;;;;;;;;3.00;3.00;;;;;20.14;37.26;100111.53;4988227;28;8811;-51
2021/05/28 02:08:14;;;;;;;;;3.00;3.00;;;;;20.19;37.30;100125.06;4986678;28;8958;-51
2021/05/28 02:10:40;;;;;;;;;4.00;4.00;;;;;20.18;37.31;100122.66;4997395;28;8874;-51
2021/05/28 02:13:06;;;;;;;;;5.00;4.75;;;;;20.08;37.41;100112.78;5001794;28;8800;-50
2021/05/28 02:15:31;;;;;;;;;3.50;3.50;;;;;20.16;37.45;100128.44;5001910;28;9183;-50
2021/05/28 02:17:57;;;;;;;;;4.00;4.00;;;;;20.15;37.46;100124.06;5002943;28;8812;-50
2021/05/28 02:20:23;;;;;;;;;4.25;4.25;;;;;20.15;37.47;100131.50;4995912;28;8917;-51
2021/05/28 02:22:49;;;;;;;;;4.00;4.00;;;;;20.45;36.92;100132.47;5000395;28;8774;-51
2021/05/28 02:25:15;;;;;;;;;4.80;4.80;;;;;20.28;36.78;100133.28;5002938;28;8792;-51
2021/05/28 02:27:41;;;;;;;;;4.00;4.00;;;;;20.15;37.10;100123.28;4994824;28;8803;-50
2021/05/28 02:30:08;;;;;;;;;3.40;3.40;;;;;20.14;37.39;100130.69;4986011;28;8823;-50
2021/05/28 02:32:34;;;;;;;;;3.00;3.00;;;;;20.12;37.33;100124.72;4988824;28;8784;-51
2021/05/28 02:34:59;;;;;;;;;4.00;4.00;;;;;20.11;37.46;100112.16;4996936;28;8802;-50
2021/05/28 02:37:25;;;;;;;;;4.25;4.25;;;;;20.11;37.17;100120.38;4994180;28;8951;-51
2021/05/28 02:39:51;;;;;;;;;4.80;4.00;;;;;20.09;37.41;100119.91;4999148;28;8797;-50
2021/05/28 02:42:17;;;;;;;;;3.50;3.50;;;;;20.21;37.44;100124.72;4999204;28;8875;-50
2021/05/28 02:44:42;;;;;;;;;4.00;4.00;;;;;20.31;37.02;100129.88;5001790;28;9505;-51
2021/05/28 02:47:08;;;;;;;;;5.00;4.75;;;;;20.19;37.29;100124.22;4991836;28;8796;-51
2021/05/28 02:49:35;;;;;;;;;4.00;4.00;;;;;20.37;36.89;100123.13;4997437;28;9512;-50
2021/05/28 02:52:00;;;;;;;;;3.40;3.40;;;;;20.13;37.22;100122.78;5001062;28;8894;-51
2021/05/28 02:54:26;;;;;;;;;4.75;4.75;;;;;20.50;36.87;100126.03;5000495;28;9611;-51
2021/05/28 02:56:51;;;;;;;;;4.00;4.00;;;;;20.61;36.52;100133.66;5000829;28;8800;-50
2021/05/28 02:59:17;;;;;;;;;5.25;4.50;;;;;20.28;36.75;100132.47;4991159;28;9543;-51
2021/05/28 03:01:42;;;;;;;;;4.25;4.25;;;;;20.09;37.12;100128.09;4995170;28;8762;-50
2021/05/28 03:04:08;;;;;;;;;3.00;3.00;;;;;20.32;37.00;100128.78;5000707;28;9523;-51
2021/05/28 03:06:33;;;;;;;;;3.75;3.75;;;;;20.39;36.81;100140.06;4993720;28;9537;-51
2021/05/28 03:08:59;;;;;;;;;4.00;4.00;;;;;20.08;37.34;100142.13;4995161;28;8839;-51
2021/05/28 03:11:24;;;;;;;;;3.50;3.50;;;;;20.16;37.18;100141.34;4999956;28;8796;-51
2021/05/28 03:13:49;;;;;;;;;4.00;4.00;;;;;20.26;37.26;100149.22;4991310;28;9457;-50
2021/05/28 03:16:15;;;;;;;;;4.50;4.50;;;;;20.07;37.11;100144.06;5000811;28;8822;-51
2021/05/28 03:24:01;;;;;;;;;4.00;4.00;;;;;20.37;36.81;100139.56;4996539;28;8789;-51
2021/05/28 03:26:28;;;;;;;;;4.00;4.00;;;;;20.14;37.16;100140.81;4987980;28;8799;-51
2021/05/28 03:28:54;;;;;;;;;4.80;4.80;;;;;20.35;36.88;100147.31;4987793;28;8886;-51
2021/05/28 03:31:21;;;;;;;;;5.00;5.00;;;;;20.17;36.94;100142.94;4996614;28;9976;-51
2021/05/28 03:33:47;;;;;;;;;3.60;3.60;;;;;20.04;37.22;100144.69;4993963;28;8791;-51
2021/05/28 03:36:15;;;;;;;;;4.75;4.75;;;;;19.99;37.42;100147.56;5001340;28;9901;-51
2021/05/28 03:38:41;;;;;;;;;4.60;4.60;;;;;19.97;37.41;100145.16;4995407;28;8822;-51
2021/05/28 03:41:07;;;;;;;;;4.00;4.00;;;;;19.96;37.57;100151.75;4987445;28;8866;-51
2021/05/28 03:43:34;;;;;;;;;3.00;3.00;;;;;19.95;37.56;100154.81;4987713;28;8807;-50
2021/05/28 03:46:01;;;;;;;;;4.00;4.00;;;;;19.94;37.66;100151.25;4997555;28;8792;-51
2021/05/28 03:48:26;;;;;;;;;5.00;5.00;;;;;19.94;37.72;100153.19;4997724;28;8791;-51
2021/05/28 03:50:51;;;;;;;;;3.25;3.25;;;;;19.93;37.50;100143.34;4990839;28;8829;-50
2021/05/28 03:53:17;;;;;;;;;4.00;4.00;;;;;19.91;37.50;100151.09;4988515;28;8923;-51
2021/05/28 03:55:42;;;;;;;;;4.00;4.00;;;;;19.93;37.66;100157.03;4999784;28;8780;-50
2021/05/28 03:58:07;;;;;;;;;5.00;4.00;;;;;19.92;37.59;100158.19;4993435;28;8812;-50
2021/05/28 04:00:33;;;;;;;;;3.00;3.00;;;;;20.23;37.34;100164.38;4995567;28;8839;-51
2021/05/28 04:02:58;;;;;;;;;4.00;4.00;;;;;20.22;37.10;100162.75;5001246;28;8804;-51
2021/05/28 04:05:23;;;;;;;;;4.50;4.50;;;;;20.02;37.14;100161.44;4992160;28;8797;-51
2021/05/28 04:07:49;;;;;;;;;4.00;4.00;;;;;19.96;37.43;100153.69;4993925;28;8784;-50
2021/05/28 04:10:15;;;;;;;;;5.75;5.00;;;;;19.93;37.67;100160.63;5005175;28;8861;-50
2021/05/28 04:12:40;;;;;;;;;4.25;4.00;;;;;19.92;37.53;100158.97;4989985;28;8921;-50
2021/05/28 04:15:08;;;;;;;;;4.00;4.00;;;;;19.91;37.68;100162.88;4992876;28;9897;-51
2021/05/28 04:17:33;;;;;;;;;3.60;3.60;;;;;19.90;37.65;100161.25;4991772;28;8768;-50
2021/05/28 04:19:59;;;;;;;;;3.00;3.00;;;;;19.88;37.70;100157.22;4993490;28;8795;-50
2021/05/28 04:22:25;;;;;;;;;4.75;4.75;;;;;19.89;37.73;100158.81;5000424;28;8800;-51
2021/05/28 04:24:50;;;;;;;;;4.00;4.00;;;;;19.88;37.67;100160.75;4994461;28;8788;-50
2021/05/28 04:27:16;;;;;;;;;4.00;4.00;;;;;19.89;37.60;100164.28;4991941;28;8815;-51
2021/05/28 04:29:41;;;;;;;;;4.50;4.00;;;;;19.88;37.76;100168.97;5000664;28;8784;-51
2021/05/28 04:32:06;;;;;;;;;3.50;3.50;;;;;20.02;37.44;100160.63;4990834;28;8787;-51
2021/05/28 04:34:35;;;;;;;;;4.00;4.00;;;;;20.16;37.17;100171.47;4996128;28;8846;-50
2021/05/28 04:37:01;;;;;;;;;5.00;5.00;;;;;20.04;37.07;100178.34;5000664;28;8899;-51
2021/05/28 04:39:26;;;;;;;;;5.00;5.00;;;;;19.86;37.31;100161.06;4990945;28;9021;-50
2021/05/28 04:41:54;;;;;;;;;3.25;3.25;;;;;19.82;37.54;100164.75;4982548;28;8825;-50
2021/05/28 04:44:19;;;;;;;;;4.00;4.00;;;;;19.89;37.52;100170.56;4984595;28;8812;-50
2021/05/28 04:46:45;;;;;;;;;4.00;4.00;;;;;19.89;37.62;100173.31;4995545;28;8759;-50
2021/05/28 04:49:10;;;;;;;;;4.00;4.00;;;;;19.88;37.63;100176.38;4992749;28;8856;-50
2021/05/28 04:51:35;;;;;;;;;4.00;4.00;;;;;19.86;37.45;100184.91;4991688;28;8822;-51
2021/05/28 04:54:01;;;;;;;;;5.00;5.00;;;;;19.88;37.60;100176.38;4984533;28;8801;-53
2021/05/28 04:56:26;;;;;;;;;4.25;4.25;;;;;19.85;37.63;100180.53;4987921;28;9049;-52
2021/05/28 04:58:51;;;;;;;;;4.00;4.00;;;;;19.85;37.63;100181.34;4990240;28;9307;-53
2021/05/28 05:01:17;;;;;;;;;4.50;4.50;;;;;19.86;37.68;100180.22;4977643;28;8848;-52
2021/05/28 05:03:42;;;;;;;;;5.00;5.00;;;;;19.86;37.63;100179.44;4983185;28;8823;-52
2021/05/28 05:06:07;;;;;;;;;4.00;4.00;;;;;19.96;37.55;100176.38;4988432;28;8764;-53
2021/05/28 05:08:32;;;;;;;;;5.00;5.00;;;;;20.14;37.00;100176.44;4997825;28;8831;-52
2021/05/28 05:10:58;;;;;;;;;5.00;5.00;;;;;19.97;37.12;100177.22;4995681;28;8769;-52
2021/05/28 05:13:23;;;;;;;;;4.00;4.00;;;;;19.90;37.35;100185.06;5003861;28;8795;-53
2021/05/28 05:15:49;;;;;;;;;3.00;3.00;;;;;19.85;37.68;100186.81;4985318;28;8873;-52
2021/05/28 05:18:14;;;;;;;;;3.75;3.75;;;;;19.80;37.77;100178.75;4984322;28;8827;-53
2021/05/28 05:20:40;;;;;;;;;4.50;4.50;;;;;19.83;37.65;100189.06;4984769;28;8795;-53
2021/05/28 05:23:05;;;;;;;;;5.00;4.25;;;;;19.82;37.74;100183.91;4997383;28;9237;-53
2021/05/28 05:25:31;;;;;;;;;4.00;4.00;;;;;19.81;37.67;100187.78;4995913;28;8824;-52
2021/05/28 05:27:56;;;;;;;;;4.00;4.00;;;;;19.81;37.58;100190.53;5002509;28;8831;-53
2021/05/28 05:30:22;;;;;;;;;4.00;4.00;;;;;19.78;37.63;100186.47;4996753;28;8874;-52
2021/05/28 05:32:47;;;;;;;;;4.80;4.80;;;;;19.78;37.76;100191.16;5002024;28;8832;-53
2021/05/28 05:35:13;;;;;;;;;4.00;4.00;;;;;19.81;37.71;100187.78;4995529;28;8790;-53
2021/05/28 05:37:39;;;;;;;;;4.00;4.00;;;;;19.80;37.63;100177.94;4999104;28;8768;-52
2021/05/28 05:40:06;;;;;;;;;5.00;5.00;;;;;19.98;37.42;100179.63;4999768;28;8808;-53
2021/05/28 05:42:36;;;;;;;;;4.20;4.20;;;;;20.13;36.71;100191.25;4982707;28;8818;-53
2021/05/28 05:45:01;;;;;;;;;4.00;4.00;;;;;19.89;37.39;100189.72;4995617;28;8921;-52
2021/05/28 05:47:26;;;;;;;;;4.75;4.75;;;;;19.83;37.70;100193.75;4996347;28;8817;-52
2021/05/28 05:49:51;;;;;;;;;3.25;3.25;;;;;19.80;37.59;100183.41;4996946;28;8883;-52
2021/05/28 05:52:17;;;;;;;;;5.00;5.00;;;;;19.78;37.84;100183.75;5002204;28;8858;-51
2021/05/28 05:54:42;;;;;;;;;3.75;3.75;;;;;19.78;37.74;100185.69;5003270;28;8855;-53
2021/05/28 05:57:08;;;;;;;;;4.25;4.25;;;;;19.76;37.67;100171.50;4999143;28;8776;-53
2021/05/28 05:59:33;;;;;;;;;4.00;4.00;;;;;19.76;37.75;100176.97;4991274;28;8822;-53
2021/05/28 06:02:01;;;;;;;;;3.50;3.50;;;;;19.75;37.84;100162.50;4987689;28;8775;-52
2021/05/28 06:04:26;;;;;;;;;4.00;4.00;;;;;19.81;37.63;100174.09;4998637;28;8842;-52
2021/05/28 06:06:52;;;;;;;;;4.00;4.00;;;;;19.85;37.75;100169.59;4996632;28;8797;-52
2021/05/28 06:09:17;;;;;;;;;4.00;4.00;;;;;19.75;37.69;100165.22;4995057;28;8807;-52
2021/05/28 06:11:42;;;;;;;;;4.00;4.00;;;;;19.79;37.81;100168.16;4999086;28;8815;-52
2021/05/28 06:14:09;;;;;;;;;3.50;3.50;;;;;20.03;37.54;100170.44;4993409;28;8811;-53
2021/05/28 06:16:34;;;;;;;;;4.60;4.60;;;;;19.88;37.35;100179.91;4996149;28;8861;-53
2021/05/28 06:18:59;;;;;;;;;4.25;4.00;;;;;19.79;37.62;100187.31;4996675;28;8989;-52
2021/05/28 06:21:25;;;;;;;;;4.00;4.00;;;;;19.75;37.81;100181.66;4993772;28;8791;-53
2021/05/28 06:23:50;;;;;;;;;4.00;3.00;;;;;19.74;37.76;100179.22;5000191;28;8905;-53
2021/05/28 06:26:15;;;;;;;;;4.00;4.00;;;;;19.73;37.81;100183.03;4999282;28;8911;-53
2021/05/28 06:28:41;;;;;;;;;4.00;4.00;;;;;19.85;37.75;100180.53;4997203;28;8751;-53
2021/05/28 06:31:06;;;;;;;;;4.00;4.00;;;;;19.72;38.04;100185.00;5002534;28;8826;-52
2021/05/28 06:33:32;;;;;;;;;3.25;3.25;;;;;19.71;37.84;100180.63;5000850;28;8796;-53
2021/05/28 06:35:57;;;;;;;;;4.25;4.00;;;;;19.70;37.92;100175.47;5000898;28;8792;-52
2021/05/28 06:38:22;;;;;;;;;3.25;3.25;;;;;19.66;38.01;100167.06;5002719;28;9145;-53
2021/05/28 06:40:48;;;;;;;;;4.25;3.75;;;;;19.68;37.91;100182.06;4992673;28;8822;-53
2021/05/28 06:43:14;;;;;;;;;3.50;3.50;;;;;19.70;37.87;100179.03;5003249;28;9343;-52
2021/05/28 06:45:40;;;;;;;;;5.00;4.00;;;;;19.91;37.75;100182.03;4995265;28;8788;-53
2021/05/28 06:48:08;;;;;;;;;4.25;4.25;;;;;19.95;37.40;100169.31;4997180;28;8818;-53
2021/05/28 06:50:33;;;;;;;;;5.00;4.00;;;;;19.72;37.60;100159.53;5006192;28;8765;-52
2021/05/28 06:52:59;;;;;;;;;4.00;4.00;;;;;19.73;37.71;100175.63;4991223;28;8808;-53
2021/05/28 06:55:26;;;;;;;;;4.25;4.25;;;;;19.66;37.93;100161.59;4996093;28;8760;-53
2021/05/28 06:57:52;;;;;;;;;3.00;3.00;;;;;19.70;37.84;100165.34;4998157;28;9204;-52
2021/05/28 07:00:18;;;;;;;;;3.75;3.75;;;;;19.67;37.91;100158.56;4992524;28;8819;-53
2021/05/28 07:02:43;;;;;;;;;4.20;4.00;;;;;19.66;37.81;100156.13;4989267;28;8808;-53
2021/05/28 07:05:09;;;;;;;;;4.75;4.00;;;;;19.67;37.85;100161.28;4990164;28;8885;-51
2021/05/28 07:07:34;;;;;;;;;3.00;3.00;;;;;19.70;37.84;100157.13;4993678;28;8812;-53
2021/05/28 07:10:00;;;;;;;;;3.00;3.00;;;;;19.68;37.87;100162.09;5000134;28;8938;-53
2021/05/28 07:12:25;;;;;;;;;3.00;3.00;;;;;19.67;37.94;100157.75;4988055;28;8814;-52
2021/05/28 07:14:51;;;;;;;;;3.60;3.60;;;;;19.66;38.05;100159.69;4975645;28;8880;-52
2021/05/28 07:17:16;;;;;;;;;4.00;4.00;;;;;19.66;38.24;100156.13;4978666;28;8942;-54
2021/05/28 07:19:42;;;;;;;;;3.50;3.50;;;;;19.95;37.58;100152.88;4998648;28;8807;-52
2021/05/28 07:22:07;;;;;;;;;5.00;5.00;;;;;19.83;37.50;100153.47;4994303;28;8894;-53
2021/05/28 07:24:32;;;;;;;;;4.00;4.00;;;;;19.74;37.86;100154.59;4992309;28;8814;-53
2021/05/28 07:26:58;;;;;;;;;3.00;3.00;;;;;19.68;38.02;100160.19;4999462;28;8777;-53
2021/05/28 07:29:23;;;;;;;;;3.25;3.25;;;;;19.66;38.00;100153.41;4992456;28;8757;-53
2021/05/28 07:31:49;;;;;;;;;3.50;3.50;;;;;19.63;37.99;100146.63;4997678;28;8785;-53
2021/05/28 07:34:14;;;;;;;;;3.75;3.25;;;;;19.64;38.01;100159.19;5001431;28;8990;-53
2021/05/28 07:36:40;;;;;;;;;4.00;4.00;;;;;19.61;38.10;100143.41;4983303;28;8895;-53
2021/05/28 07:39:06;;;;;;;;;3.00;3.00;;;;;19.64;37.84;100153.72;4986577;28;8801;-53
2021/05/28 07:41:32;;;;;;;;;3.00;3.00;;;;;19.58;37.90;100144.03;4990865;28;8783;-53
2021/05/28 07:43:57;;;;;;;;;3.25;3.25;;;;;19.64;38.07;100155.66;5000597;28;8943;-53
2021/05/28 07:46:23;;;;;;;;;3.00;3.00;;;;;19.63;37.92;100157.59;4997898;28;10533;-52
2021/05/28 07:48:48;;;;;;;;;2.75;2.75;;;;;19.62;38.48;100145.00;4993014;28;9609;-52
2021/05/28 07:51:15;;;;;;;;;3.00;3.00;;;;;19.78;38.04;100152.84;4997328;28;11624;-52
2021/05/28 07:53:40;;;;;;;;;2.60;2.60;;;;;20.01;37.61;100151.59;4998685;28;8775;-53
2021/05/28 07:56:06;;;;;;;;;4.00;4.00;;;;;19.92;37.41;100148.03;4997093;28;8882;-53
2021/05/28 07:58:32;;;;;;;;;2.75;2.75;;;;;19.83;37.62;100145.28;4996142;28;8804;-52
2021/05/28 08:00:58;;;;;;;;;2.80;2.80;;;;;19.65;37.81;100132.63;4997806;28;8798;-50
2021/05/28 08:03:23;;;;;;;;;3.00;3.00;;;;;19.86;38.04;100143.84;4995937;28;8820;-51
2021/05/28 08:05:51;;;;;;;;;3.00;3.00;;;;;20.25;37.28;100147.63;4994276;28;8815;-49
2021/05/28 08:08:19;;;;;;;;;3.60;2.80;;;;;20.50;37.09;100135.06;4994621;28;8797;-51
2021/05/28 08:10:45;;;;;;;;;3.00;3.00;;;;;20.57;37.93;100134.56;4961074;28;8822;-52
2021/05/28 08:13:10;;;;;;;;;4.00;4.00;;;;;20.54;38.31;100133.28;4990173;28;8791;-48
2021/05/28 08:15:36;;;;;;;;;3.00;3.00;;;;;20.82;38.58;100134.91;4981892;28;8794;-47
2021/05/28 08:18:02;;;;;;;;;3.00;3.00;;;;;20.80;38.94;100133.28;4982744;28;8830;-49
2021/05/28 08:20:28;;;;;;;;;3.80;3.80;;;;;20.70;39.25;100122.69;5002214;28;8965;-49
2021/05/28 08:22:54;;;;;;;;;3.80;3.80;;;;;20.72;39.03;100119.59;4996922;28;8832;-49
2021/05/28 08:25:20;;;;;;;;;3.00;3.00;;;;;21.24;39.59;100129.66;4991107;28;8804;-48
2021/05/28 08:27:45;;;;;;;;;2.00;2.00;;;;;21.40;38.38;100127.19;4979781;28;8868;-50
2021/05/28 08:30:13;;;;;;;;;3.00;3.00;;;;;21.49;36.45;100123.28;4972310;28;8807;-49
2021/05/28 08:32:39;;;;;;;;;3.60;3.60;;;;;21.47;35.52;100131.03;4972242;28;8806;-50
2021/05/28 08:35:05;;;;;;;;;3.00;3.00;;;;;21.54;35.38;100120.34;4970876;28;8902;-50
2021/05/28 08:37:30;;;;;;;;;2.80;2.80;;;;;21.33;36.38;100113.97;4994154;28;8920;-50
2021/05/28 08:39:56;;;;;;;;;2.00;2.00;;;;;20.72;37.43;100120.41;4991859;28;8982;-46
2021/05/28 08:42:21;;;;;;;;;3.50;3.50;;;;;20.41;38.42;100115.88;4997059;28;8827;-49
2021/05/28 08:44:48;;;;;;;;;3.00;3.00;;;;;20.49;38.19;100114.28;4999082;28;8814;-48
2021/05/28 08:47:16;;;;;;;;;4.00;4.00;;;;;20.63;38.04;100119.59;5000672;28;8827;-48
2021/05/28 08:49:46;;;;;;;;;3.00;2.20;;;;;20.57;38.06;100118.94;4986168;28;8791;-49
2021/05/28 08:52:12;;;;;;;;;3.00;3.00;;;;;20.60;37.95;100123.78;5000340;28;9521;-47
2021/05/28 08:54:37;;;;;;;;;2.00;2.00;;;;;20.63;37.85;100110.56;4997551;28;8828;-49
2021/05/28 08:57:03;;;;;;;;;3.00;3.00;;;;;20.61;37.78;100111.72;4994617;28;8851;-46
2021/05/28 08:59:28;;;;;;;;;2.00;2.00;;;;;20.58;37.74;100114.28;4994039;28;8804;-50
2021/05/28 09:01:54;;;;;;;;;3.00;3.00;;;;;20.56;37.73;100111.03;4996681;28;8799;-49
2021/05/28 09:04:20;;;;;;;;;4.00;3.25;;;;;20.51;37.69;100102.97;4995082;28;8804;-49
2021/05/28 09:06:47;;;;;;;;;3.40;3.40;;;;;20.53;38.04;100111.69;4981092;28;8917;-49
2021/05/28 09:09:20;;;;;;;;;2.20;2.20;;;;;20.55;37.81;100110.22;4985398;28;8800;-49
2021/05/28 09:12:01;;;;;;;;;3.00;3.00;;;;;20.86;37.74;100103.78;4992604;28;8796;-50
2021/05/28 09:14:31;;;;;;;;;3.00;3.00;;;;;20.97;37.34;100098.75;4993383;28;8973;-49
2021/05/28 09:16:57;;;;;;;;;3.00;3.00;;;;;21.03;37.50;100105.66;4996386;28;9788;-50
2021/05/28 09:19:23;;;;;;;;;2.00;2.00;;;;;20.96;37.39;100105.34;4995595;28;8808;-48
2021/05/28 09:21:55;;;;;;;;;2.40;2.40;;;;;20.83;37.36;100095.41;4994213;28;8805;-49
2021/05/28 09:24:34;;;;;;;;;3.00;3.00;;;;;20.99;37.31;100101.97;4992617;28;8819;-49
2021/05/28 09:27:18;;;;;;;;;2.00;2.00;;;;;20.82;37.64;100096.53;4999733;28;8788;-47
2021/05/28 09:30:18;;;;;;;;;2.00;2.00;;;;;20.83;37.52;100096.19;4998123;28;8854;-49
2021/05/28 09:32:47;;;;;;;;;2.80;2.40;;;;;20.90;37.01;100088.28;4996763;28;8786;-49
2021/05/28 09:35:17;;;;;;;;;2.00;2.00;;;;;20.54;37.62;100088.63;4995181;28;8839;-51
2021/05/28 09:37:48;;;;;;;;;2.00;2.00;;;;;20.53;37.42;100081.56;5001376;28;8800;-47
2021/05/28 09:40:19;;;;;;;;;3.00;3.00;;;;;20.42;37.42;100075.56;4997032;28;8911;-47
2021/05/28 09:42:48;;;;;;;;;3.00;3.00;;;;;20.37;37.32;100073.81;4988916;28;9607;-48
2021/05/28 09:45:20;;;;;;;;;2.00;2.00;;;;;20.41;37.16;100073.97;4990422;28;8820;-47
2021/05/28 09:47:45;;;;;;;;;3.00;3.00;;;;;20.32;36.99;100064.97;4990072;28;8876;-47
2021/05/28 09:50:14;;;;;;;;;3.00;3.00;;;;;20.35;37.08;100078.81;4991708;28;8855;-47
2021/05/28 09:52:39;;;;;;;;;3.00;3.00;;;;;20.35;36.92;100072.53;4992261;28;8793;-47
2021/05/28 09:55:09;;;;;;;;;2.00;2.00;;;;;20.34;37.03;100063.50;4989404;28;8902;-47
2021/05/28 09:57:36;;;;;;;;;2.80;2.80;;;;;20.38;36.88;100067.19;4991104;28;8780;-47
2021/05/28 10:00:31;;;;;;;;;2.40;2.40;;;;;20.35;36.82;100065.13;4990202;28;8910;-48
2021/05/28 10:03:13;;;;;;;;;2.20;2.20;;;;;20.38;36.79;100069.94;4988491;28;9564;-47
2021/05/28 10:05:42;;;;;;;;;2.80;2.80;;;;;20.36;36.77;100066.72;4986659;28;8775;-47
2021/05/28 10:08:09;;;;;;;;;2.00;2.00;;;;;20.32;36.93;100065.75;4971603;28;8821;-47
2021/05/28 10:10:36;;;;;;;;;2.40;2.40;;;;;20.31;36.69;100068.81;4990439;28;8816;-47
2021/05/28 10:13:11;;;;;;;;;2.00;2.00;;;;;20.30;36.70;100073.50;4990180;28;8911;-48
2021/05/28 10:15:45;;;;;;;;;2.40;2.40;;;;;20.28;36.69;100073.03;4990048;28;8846;-47
2021/05/28 10:18:12;;;;;;;;;2.00;2.00;;;;;20.28;36.58;100064.81;4990120;28;10219;-47
2021/05/28 10:20:39;;;;;;;;;2.00;2.00;;;;;20.28;36.67;100070.28;4989415;28;8855;-48
2021/05/28 10:23:06;;;;;;;;;1.00;1.00;;;;;20.30;36.72;100070.75;4986951;28;8804;-47
2021/05/28 10:25:33;;;;;;;;;2.20;2.20;;;;;20.29;36.57;100058.19;4992828;28;8808;-47
2021/05/28 10:28:01;;;;;;;;;3.00;3.00;;;;;20.27;36.50;100059.66;4989646;28;9072;-47
2021/05/28 10:30:39;;;;;;;;;2.00;2.00;;;;;20.29;36.57;100068.34;4990134;28;8905;-47
2021/05/28 10:33:18;;;;;;;;;2.00;2.00;;;;;20.31;36.61;100068.81;4991905;28;8784;-48
2021/05/28 10:35:48;;;;;;;;;2.00;2.00;;;;;20.28;36.59;100058.50;4990991;28;9648;-47
2021/05/28 10:38:35;;;;;;;;;2.00;2.00;;;;;20.29;36.51;100055.44;4990691;28;8820;-47
2021/05/28 10:41:00;;;;;;;;;2.00;2.00;;;;;20.30;36.51;100048.03;4992645;28;8939;-48
2021/05/28 10:43:27;;;;;;;;;2.00;2.00;;;;;20.27;36.44;100044.00;4991549;28;10186;-47
2021/05/28 10:46:08;;;;;;;;;3.00;3.00;;;;;20.26;36.37;100036.13;4989203;28;8942;-48
2021/05/28 10:48:39;;;;;;;;;1.80;1.80;;;;;20.28;36.40;100040.16;4992689;28;8805;-47
2021/05/28 10:51:06;;;;;;;;;2.00;2.00;;;;;20.26;36.45;100038.84;4991740;28;8777;-48
2021/05/28 10:53:33;;;;;;;;;2.00;2.00;;;;;20.24;36.51;100037.25;4990780;28;8769;-48
2021/05/28 10:56:06;;;;;;;;;2.00;2.00;;;;;20.24;36.51;100039.16;4993222;28;8844;-48
2021/05/28 10:58:49;;;;;;;;;2.00;2.00;;;;;20.24;36.50;100039.16;4991424;28;8816;-47
2021/05/28 11:01:58;;;;;;;;;2.00;2.00;;;;;20.22;36.45;100031.28;4990696;28;8911;-47
2021/05/28 11:04:44;;;;;;;;;2.00;2.00;;;;;20.23;36.37;100026.63;4992323;28;8820;-48
2021/05/28 11:07:09;;;;;;;;;2.00;2.00;;;;;20.23;36.37;100032.09;4989623;28;8840;-48
2021/05/28 11:09:41;;;;;;;;;2.00;2.00;;;;;20.19;36.46;100029.19;4990393;28;8948;-48
2021/05/28 11:12:08;;;;;;;;;3.00;3.00;;;;;20.22;36.31;100041.44;4989858;28;8821;-47
2021/05/28 11:14:36;;;;;;;;;2.00;2.00;;;;;20.21;36.57;100042.53;4989822;28;8792;-48
2021/05/28 11:17:01;;;;;;;;;2.80;2.00;;;;;20.19;36.32;100042.06;4991409;28;8834;-48
2021/05/28 11:19:33;;;;;;;;;3.00;3.00;;;;;20.21;36.28;100046.13;4991552;28;8812;-48
2021/05/28 11:22:02;;;;;;;;;1.40;1.40;;;;;20.29;36.38;100038.22;4988108;28;8812;-48
2021/05/28 11:24:55;;;;;;;;;2.00;2.00;;;;;20.37;37.76;100037.41;4993174;28;8824;-47
2021/05/28 11:27:20;;;;;;;;;2.00;2.00;;;;;20.28;38.17;100037.41;4993676;28;8776;-50
2021/05/28 11:30:05;;;;;;;;;2.00;2.00;;;;;20.30;37.69;100032.41;4992245;28;8819;-49
2021/05/28 11:32:32;;;;;;;;;2.00;2.00;;;;;20.36;37.79;100033.03;4992319;28;9186;-48
2021/05/28 11:35:21;;;;;;;;;2.00;2.00;;;;;20.38;37.65;100025.31;4996484;28;8820;-50
2021/05/28 11:38:00;;;;;;;;;2.00;2.00;;;;;20.47;38.21;100036.25;4991807;28;8808;-54
2021/05/28 11:40:39;;;;;;;;;1.80;1.80;;;;;20.78;38.69;100036.84;4993635;28;8861;-48